sensor_id;sensor_type;location;lat;lon;timestamp;temperature;humidity
2897;DHT22;1458;49.728;9.228;2023-11-18T00:00:40;7.10;99.90
2897;DHT22;1458;49.728;9.228;2023-11-18T00:03:07;7.00;99.90
2897;DHT22;1458;49.728;9.228;2023-11-18T00:05:35;7.00;99.90
2897;DHT22;1458;49.728;9.228;2023-11-18T00:08:02;6.90;99.90
2897;DHT22;1458;49.728;9.228;2023-11-18T00:10:30;6.90;99.90
2897;DHT22;1458;49.728;9.228;2023-11-18T00:12:57;6.80;99.90
2897;DHT22;1458;49.728;9.228;2023-11-18T00:15:26;6.80;99.90
2897;DHT22;1458;49.728;9.228;2023-11-18T00:17:53;6.80;99.90
2897;DHT22;1458;49.728;9.228;2023-11-18T00:20:21;6.80;99.90
2897;DHT22;1458;49.728;9.228;2023-11-18T00:22:49;6.60;99.90
2897;DHT22;1458;49.728;9.228;2023-11-18T00:25:18;6.60;99.90
2897;DHT22;1458;49.728;9.228;2023-11-18T00:27:46;6.40;99.90
2897;DHT22;1458;49.728;9.228;2023-11-18T00:30:15;6.40;99.90
2897;DHT22;1458;49.728;9.228;2023-11-18T00:32:44;6.40;99.90
2897;DHT22;1458;49.728;9.228;2023-11-18T00:35:11;6.20;99.90
2897;DHT22;1458;49.728;9.228;2023-11-18T00:37:38;6.20;99.90
2897;DHT22;1458;49.728;9.228;2023-11-18T00:40:07;6.20;99.90
2897;DHT22;1458;49.728;9.228;2023-11-18T00:42:35;6.20;99.90
2897;DHT22;1458;49.728;9.228;2023-11-18T00:45:05;6.10;99.90
2897;DHT22;1458;49.728;9.228;2023-11-18T00:47:34;6.10;99.90
2897;DHT22;1458;49.728;9.228;2023-11-18T00:50:03;6.10;99.90
2897;DHT22;1458;49.728;9.228;2023-11-18T00:52:35;6.10;99.90
2897;DHT22;1458;49.728;9.228;2023-11-18T00:55:05;6.10;99.90
2897;DHT22;1458;49.728;9.228;2023-11-18T00:57:33;6.10;99.90
2897;DHT22;1458;49.728;9.228;2023-11-18T01:00:00;6.10;99.90
2897;DHT22;1458;49.728;9.228;2023-11-18T01:02:28;6.20;99.90
2897;DHT22;1458;49.728;9.228;2023-11-18T01:04:55;6.10;99.90
2897;DHT22;1458;49.728;9.228;2023-11-18T01:07:24;6.20;99.90
2897;DHT22;1458;49.728;9.228;2023-11-18T01:09:52;6.20;99.90
2897;DHT22;1458;49.728;9.228;2023-11-18T01:12:19;6.20;99.90
2897;DHT22;1458;49.728;9.228;2023-11-18T01:14:46;6.20;99.90
2897;DHT22;1458;49.728;9.228;2023-11-18T01:17:14;6.20;99.90
2897;DHT22;1458;49.728;9.228;2023-11-18T01:19:42;6.10;99.90
2897;DHT22;1458;49.728;9.228;2023-11-18T01:22:09;6.10;99.90
2897;DHT22;1458;49.728;9.228;2023-11-18T01:24:40;6.00;99.90
2897;DHT22;1458;49.728;9.228;2023-11-18T01:27:07;6.10;99.90
2897;DHT22;1458;49.728;9.228;2023-11-18T01:29:35;6.10;99.90
2897;DHT22;1458;49.728;9.228;2023-11-18T01:32:03;6.20;99.90
2897;DHT22;1458;49.728;9.228;2023-11-18T01:34:35;6.20;99.90
2897;DHT22;1458;49.728;9.228;2023-11-18T01:37:04;6.20;99.90
2897;DHT22;1458;49.728;9.228;2023-11-18T01:39:34;6.00;99.90
2897;DHT22;1458;49.728;9.228;2023-11-18T01:42:03;6.00;99.90
2897;DHT22;1458;49.728;9.228;2023-11-18T01:44:31;6.20;99.90
2897;DHT22;1458;49.728;9.228;2023-11-18T01:47:01;6.00;99.90
2897;DHT22;1458;49.728;9.228;2023-11-18T01:49:32;6.10;99.90
2897;DHT22;1458;49.728;9.228;2023-11-18T01:52:03;6.10;99.90
2897;DHT22;1458;49.728;9.228;2023-11-18T01:54:33;6.00;99.90
2897;DHT22;1458;49.728;9.228;2023-11-18T01:57:04;6.00;99.90
2897;DHT22;1458;49.728;9.228;2023-11-18T01:59:33;5.90;99.90
2897;DHT22;1458;49.728;9.228;2023-11-18T02:02:01;5.70;99.90
2897;DHT22;1458;49.728;9.228;2023-11-18T02:04:29;5.70;99.90
2897;DHT22;1458;49.728;9.228;2023-11-18T02:06:57;5.60;99.90
2897;DHT22;1458;49.728;9.228;2023-11-18T02:09:29;5.50;99.90
2897;DHT22;1458;49.728;9.228;2023-11-18T02:12:03;5.50;99.90
2897;DHT22;1458;49.728;9.228;2023-11-18T02:14:39;5.60;99.90
2897;DHT22;1458;49.728;9.228;2023-11-18T02:17:09;5.70;99.90
2897;DHT22;1458;49.728;9.228;2023-11-18T02:19:42;5.70;99.90
2897;DHT22;1458;49.728;9.228;2023-11-18T02:22:11;5.60;99.90
2897;DHT22;1458;49.728;9.228;2023-11-18T02:24:40;5.70;99.90
2897;DHT22;1458;49.728;9.228;2023-11-18T02:27:09;5.70;99.90
2897;DHT22;1458;49.728;9.228;2023-11-18T02:29:40;5.70;99.90
2897;DHT22;1458;49.728;9.228;2023-11-18T02:32:15;5.50;99.90
2897;DHT22;1458;49.728;9.228;2023-11-18T02:34:52;5.50;99.90
2897;DHT22;1458;49.728;9.228;2023-11-18T02:37:25;5.50;99.90
2897;DHT22;1458;49.728;9.228;2023-11-18T02:40:00;5.50;99.90
2897;DHT22;1458;49.728;9.228;2023-11-18T02:42:35;5.60;99.90
2897;DHT22;1458;49.728;9.228;2023-11-18T02:45:06;5.60;99.90
2897;DHT22;1458;49.728;9.228;2023-11-18T02:47:36;5.60;99.90
2897;DHT22;1458;49.728;9.228;2023-11-18T02:50:05;5.60;99.90
2897;DHT22;1458;49.728;9.228;2023-11-18T02:52:37;5.60;99.90
2897;DHT22;1458;49.728;9.228;2023-11-18T02:55:06;5.70;99.90
2897;DHT22;1458;49.728;9.228;2023-11-18T02:57:35;5.80;99.90
2897;DHT22;1458;49.728;9.228;2023-11-18T03:00:04;5.70;99.90
2897;DHT22;1458;49.728;9.228;2023-11-18T03:02:37;5.70;99.90
2897;DHT22;1458;49.728;9.228;2023-11-18T03:05:06;5.70;99.90
2897;DHT22;1458;49.728;9.228;2023-11-18T03:07:37;5.70;99.90
2897;DHT22;1458;49.728;9.228;2023-11-18T03:10:05;5.90;99.90
2897;DHT22;1458;49.728;9.228;2023-11-18T03:12:39;6.00;99.90
2897;DHT22;1458;49.728;9.228;2023-11-18T03:15:07;6.00;99.90
2897;DHT22;1458;49.728;9.228;2023-11-18T03:17:37;5.90;99.90
2897;DHT22;1458;49.728;9.228;2023-11-18T03:20:07;5.90;99.90
2897;DHT22;1458;49.728;9.228;2023-11-18T03:22:37;5.90;99.90
2897;DHT22;1458;49.728;9.228;2023-11-18T03:25:06;5.80;99.90
2897;DHT22;1458;49.728;9.228;2023-11-18T03:27:34;5.90;99.90
2897;DHT22;1458;49.728;9.228;2023-11-18T03:30:03;6.00;99.90
2897;DHT22;1458;49.728;9.228;2023-11-18T03:32:32;5.90;99.90
2897;DHT22;1458;49.728;9.228;2023-11-18T03:35:01;5.90;99.90
2897;DHT22;1458;49.728;9.228;2023-11-18T03:37:30;5.80;99.90
2897;DHT22;1458;49.728;9.228;2023-11-18T03:39:58;5.70;99.90
2897;DHT22;1458;49.728;9.228;2023-11-18T03:42:25;5.80;99.90
2897;DHT22;1458;49.728;9.228;2023-11-18T03:44:53;5.90;99.90
2897;DHT22;1458;49.728;9.228;2023-11-18T03:47:22;5.90;99.90
2897;DHT22;1458;49.728;9.228;2023-11-18T03:49:50;5.90;99.90
2897;DHT22;1458;49.728;9.228;2023-11-18T03:52:19;5.80;99.90
2897;DHT22;1458;49.728;9.228;2023-11-18T03:54:47;5.80;99.90
2897;DHT22;1458;49.728;9.228;2023-11-18T03:57:14;5.70;99.90
2897;DHT22;1458;49.728;9.228;2023-11-18T03:59:42;5.70;99.90
2897;DHT22;1458;49.728;9.228;2023-11-18T04:02:09;5.70;99.90
2897;DHT22;1458;49.728;9.228;2023-11-18T04:04:38;5.70;99.90
2897;DHT22;1458;49.728;9.228;2023-11-18T04:07:06;5.80;99.90
2897;DHT22;1458;49.728;9.228;2023-11-18T04:09:33;5.80;99.90
2897;DHT22;1458;49.728;9.228;2023-11-18T04:12:01;5.70;99.90
2897;DHT22;1458;49.728;9.228;2023-11-18T04:14:28;5.70;99.90
2897;DHT22;1458;49.728;9.228;2023-11-18T04:16:56;5.70;99.90
2897;DHT22;1458;49.728;9.228;2023-11-18T04:19:24;5.70;99.90
2897;DHT22;1458;49.728;9.228;2023-11-18T04:21:53;5.70;99.90
2897;DHT22;1458;49.728;9.228;2023-11-18T04:24:20;5.70;99.90
2897;DHT22;1458;49.728;9.228;2023-11-18T04:26:48;5.70;99.90
2897;DHT22;1458;49.728;9.228;2023-11-18T04:29:15;5.60;99.90
2897;DHT22;1458;49.728;9.228;2023-11-18T04:31:43;5.70;99.90
2897;DHT22;1458;49.728;9.228;2023-11-18T04:34:11;5.60;99.90
2897;DHT22;1458;49.728;9.228;2023-11-18T04:36:41;5.60;99.90
2897;DHT22;1458;49.728;9.228;2023-11-18T04:39:10;5.60;99.90
2897;DHT22;1458;49.728;9.228;2023-11-18T04:41:42;5.60;99.90
2897;DHT22;1458;49.728;9.228;2023-11-18T04:44:09;5.70;99.90
2897;DHT22;1458;49.728;9.228;2023-11-18T04:46:36;5.60;99.90
2897;DHT22;1458;49.728;9.228;2023-11-18T04:49:04;5.50;99.90
2897;DHT22;1458;49.728;9.228;2023-11-18T04:51:32;5.50;99.90
2897;DHT22;1458;49.728;9.228;2023-11-18T04:53:59;5.40;99.90
2897;DHT22;1458;49.728;9.228;2023-11-18T04:56:30;5.40;99.90
2897;DHT22;1458;49.728;9.228;2023-11-18T04:58:57;5.50;99.90
2897;DHT22;1458;49.728;9.228;2023-11-18T05:01:25;5.50;99.90
2897;DHT22;1458;49.728;9.228;2023-11-18T05:03:52;5.60;99.90
2897;DHT22;1458;49.728;9.228;2023-11-18T05:06:20;5.60;99.90
2897;DHT22;1458;49.728;9.228;2023-11-18T05:08:48;5.60;99.90
2897;DHT22;1458;49.728;9.228;2023-11-18T05:11:15;5.60;99.90
2897;DHT22;1458;49.728;9.228;2023-11-18T05:13:45;5.70;99.90
2897;DHT22;1458;49.728;9.228;2023-11-18T05:16:12;5.70;99.90
2897;DHT22;1458;49.728;9.228;2023-11-18T05:18:39;5.80;99.90
2897;DHT22;1458;49.728;9.228;2023-11-18T05:21:07;5.90;99.90
2897;DHT22;1458;49.728;9.228;2023-11-18T05:23:34;6.00;99.90
2897;DHT22;1458;49.728;9.228;2023-11-18T05:26:02;5.90;99.90
2897;DHT22;1458;49.728;9.228;2023-11-18T05:28:31;5.80;99.90
2897;DHT22;1458;49.728;9.228;2023-11-18T05:31:00;5.80;99.90
2897;DHT22;1458;49.728;9.228;2023-11-18T05:33:28;5.80;99.90
2897;DHT22;1458;49.728;9.228;2023-11-18T05:35:57;5.70;99.90
2897;DHT22;1458;49.728;9.228;2023-11-18T05:38:24;5.80;99.90
2897;DHT22;1458;49.728;9.228;2023-11-18T05:40:53;5.80;99.90
2897;DHT22;1458;49.728;9.228;2023-11-18T05:43:23;5.70;99.90
2897;DHT22;1458;49.728;9.228;2023-11-18T05:45:55;5.70;99.90
2897;DHT22;1458;49.728;9.228;2023-11-18T05:48:42;5.70;99.90
2897;DHT22;1458;49.728;9.228;2023-11-18T05:51:10;5.70;99.90
2897;DHT22;1458;49.728;9.228;2023-11-18T05:53:41;5.70;99.90
2897;DHT22;1458;49.728;9.228;2023-11-18T05:56:11;5.60;99.90
2897;DHT22;1458;49.728;9.228;2023-11-18T05:58:38;5.50;99.90
2897;DHT22;1458;49.728;9.228;2023-11-18T06:01:06;5.50;99.90
2897;DHT22;1458;49.728;9.228;2023-11-18T06:03:35;5.60;99.90
2897;DHT22;1458;49.728;9.228;2023-11-18T06:06:06;5.40;99.90
2897;DHT22;1458;49.728;9.228;2023-11-18T06:08:35;5.30;99.90
2897;DHT22;1458;49.728;9.228;2023-11-18T06:11:06;5.30;99.90
2897;DHT22;1458;49.728;9.228;2023-11-18T06:13:41;5.20;99.90
2897;DHT22;1458;49.728;9.228;2023-11-18T06:16:12;5.10;99.90
2897;DHT22;1458;49.728;9.228;2023-11-18T06:18:42;5.00;99.90
2897;DHT22;1458;49.728;9.228;2023-11-18T06:21:13;5.00;99.90
2897;DHT22;1458;49.728;9.228;2023-11-18T06:23:41;5.00;99.90
2897;DHT22;1458;49.728;9.228;2023-11-18T06:26:09;5.00;99.90
2897;DHT22;1458;49.728;9.228;2023-11-18T06:28:38;5.00;99.90
2897;DHT22;1458;49.728;9.228;2023-11-18T06:31:09;5.00;99.90
2897;DHT22;1458;49.728;9.228;2023-11-18T06:33:38;5.10;99.90
2897;DHT22;1458;49.728;9.228;2023-11-18T06:36:09;5.10;99.90
2897;DHT22;1458;49.728;9.228;2023-11-18T06:38:39;5.10;99.90
2897;DHT22;1458;49.728;9.228;2023-11-18T06:41:07;5.00;99.90
2897;DHT22;1458;49.728;9.228;2023-11-18T06:43:37;5.10;99.90
2897;DHT22;1458;49.728;9.228;2023-11-18T06:46:18;5.30;99.90
2897;DHT22;1458;49.728;9.228;2023-11-18T06:48:48;5.40;99.90
2897;DHT22;1458;49.728;9.228;2023-11-18T06:51:16;5.50;99.90
2897;DHT22;1458;49.728;9.228;2023-11-18T06:53:45;5.50;99.90
2897;DHT22;1458;49.728;9.228;2023-11-18T06:56:12;5.40;99.90
2897;DHT22;1458;49.728;9.228;2023-11-18T06:58:41;5.20;99.90
2897;DHT22;1458;49.728;9.228;2023-11-18T07:01:12;5.10;99.90
2897;DHT22;1458;49.728;9.228;2023-11-18T07:03:41;5.10;99.90
2897;DHT22;1458;49.728;9.228;2023-11-18T07:06:08;5.10;99.90
2897;DHT22;1458;49.728;9.228;2023-11-18T07:08:36;5.00;99.90
2897;DHT22;1458;49.728;9.228;2023-11-18T07:11:06;5.30;99.90
2897;DHT22;1458;49.728;9.228;2023-11-18T07:13:33;5.40;99.90
2897;DHT22;1458;49.728;9.228;2023-11-18T07:16:01;5.50;99.90
2897;DHT22;1458;49.728;9.228;2023-11-18T07:18:31;5.50;99.90
2897;DHT22;1458;49.728;9.228;2023-11-18T07:20:59;5.40;99.90
2897;DHT22;1458;49.728;9.228;2023-11-18T07:23:26;5.30;99.90
2897;DHT22;1458;49.728;9.228;2023-11-18T07:25:53;5.30;99.90
2897;DHT22;1458;49.728;9.228;2023-11-18T07:28:23;5.40;99.90
2897;DHT22;1458;49.728;9.228;2023-11-18T07:30:52;5.40;99.90
2897;DHT22;1458;49.728;9.228;2023-11-18T07:33:20;5.40;99.90
2897;DHT22;1458;49.728;9.228;2023-11-18T07:35:48;5.40;99.90
2897;DHT22;1458;49.728;9.228;2023-11-18T07:38:16;5.40;99.90
2897;DHT22;1458;49.728;9.228;2023-11-18T07:40:46;5.40;99.90
2897;DHT22;1458;49.728;9.228;2023-11-18T07:43:13;5.50;99.90
2897;DHT22;1458;49.728;9.228;2023-11-18T07:45:43;5.60;99.90
2897;DHT22;1458;49.728;9.228;2023-11-18T07:48:12;5.70;99.90
2897;DHT22;1458;49.728;9.228;2023-11-18T07:50:43;5.70;99.90
2897;DHT22;1458;49.728;9.228;2023-11-18T07:53:11;5.70;99.90
2897;DHT22;1458;49.728;9.228;2023-11-18T07:55:39;5.90;99.90
2897;DHT22;1458;49.728;9.228;2023-11-18T07:58:07;6.00;99.90
2897;DHT22;1458;49.728;9.228;2023-11-18T08:00:36;6.10;99.90
2897;DHT22;1458;49.728;9.228;2023-11-18T08:03:06;6.20;99.90
2897;DHT22;1458;49.728;9.228;2023-11-18T08:05:37;6.30;99.90
2897;DHT22;1458;49.728;9.228;2023-11-18T08:08:05;6.40;99.90
2897;DHT22;1458;49.728;9.228;2023-11-18T08:10:33;6.20;99.90
2897;DHT22;1458;49.728;9.228;2023-11-18T08:13:03;6.20;99.90
2897;DHT22;1458;49.728;9.228;2023-11-18T08:15:32;6.30;99.90
2897;DHT22;1458;49.728;9.228;2023-11-18T08:18:00;6.30;99.90
2897;DHT22;1458;49.728;9.228;2023-11-18T08:20:29;6.30;99.90
2897;DHT22;1458;49.728;9.228;2023-11-18T08:22:56;6.20;99.90
2897;DHT22;1458;49.728;9.228;2023-11-18T08:25:24;6.20;99.90
2897;DHT22;1458;49.728;9.228;2023-11-18T08:27:51;6.20;99.90
2897;DHT22;1458;49.728;9.228;2023-11-18T08:30:19;6.40;99.90
2897;DHT22;1458;49.728;9.228;2023-11-18T08:32:46;6.50;99.90
2897;DHT22;1458;49.728;9.228;2023-11-18T08:35:14;6.50;99.90
2897;DHT22;1458;49.728;9.228;2023-11-18T08:37:44;6.50;99.90
2897;DHT22;1458;49.728;9.228;2023-11-18T08:40:13;6.50;99.90
2897;DHT22;1458;49.728;9.228;2023-11-18T08:42:43;6.50;99.90
2897;DHT22;1458;49.728;9.228;2023-11-18T08:45:15;6.60;99.90
2897;DHT22;1458;49.728;9.228;2023-11-18T08:47:45;6.70;99.90
2897;DHT22;1458;49.728;9.228;2023-11-18T08:50:13;6.80;99.90
2897;DHT22;1458;49.728;9.228;2023-11-18T08:52:43;6.90;99.90
2897;DHT22;1458;49.728;9.228;2023-11-18T08:55:13;7.00;99.90
2897;DHT22;1458;49.728;9.228;2023-11-18T08:57:45;7.10;99.90
2897;DHT22;1458;49.728;9.228;2023-11-18T09:00:24;7.20;99.90
2897;DHT22;1458;49.728;9.228;2023-11-18T09:03:14;7.10;99.90
2897;DHT22;1458;49.728;9.228;2023-11-18T09:05:50;6.80;99.90
2897;DHT22;1458;49.728;9.228;2023-11-18T09:08:31;6.80;99.90
2897;DHT22;1458;49.728;9.228;2023-11-18T09:11:01;7.00;99.90
2897;DHT22;1458;49.728;9.228;2023-11-18T09:13:31;7.00;99.90
2897;DHT22;1458;49.728;9.228;2023-11-18T09:16:02;7.10;99.90
2897;DHT22;1458;49.728;9.228;2023-11-18T09:18:34;7.20;99.90
2897;DHT22;1458;49.728;9.228;2023-11-18T09:21:03;7.40;99.90
2897;DHT22;1458;49.728;9.228;2023-11-18T09:23:33;7.60;99.90
2897;DHT22;1458;49.728;9.228;2023-11-18T09:26:01;7.60;99.10
2897;DHT22;1458;49.728;9.228;2023-11-18T09:28:34;7.50;98.80
2897;DHT22;1458;49.728;9.228;2023-11-18T09:31:02;7.30;99.00
2897;DHT22;1458;49.728;9.228;2023-11-18T09:33:32;7.20;99.90
2897;DHT22;1458;49.728;9.228;2023-11-18T09:36:01;7.30;99.60
2897;DHT22;1458;49.728;9.228;2023-11-18T09:38:32;7.30;99.60
2897;DHT22;1458;49.728;9.228;2023-11-18T09:41:02;7.40;99.30
2897;DHT22;1458;49.728;9.228;2023-11-18T09:43:33;7.50;98.90
2897;DHT22;1458;49.728;9.228;2023-11-18T09:46:09;7.80;99.70
2897;DHT22;1458;49.728;9.228;2023-11-18T09:48:42;7.90;99.10
2897;DHT22;1458;49.728;9.228;2023-11-18T09:51:20;7.90;98.30
2897;DHT22;1458;49.728;9.228;2023-11-18T09:53:51;8.20;98.60
2897;DHT22;1458;49.728;9.228;2023-11-18T09:56:27;8.20;96.20
2897;DHT22;1458;49.728;9.228;2023-11-18T09:59:10;8.20;96.10
2897;DHT22;1458;49.728;9.228;2023-11-18T10:01:42;8.00;94.80
2897;DHT22;1458;49.728;9.228;2023-11-18T10:04:13;8.30;97.20
2897;DHT22;1458;49.728;9.228;2023-11-18T10:06:44;8.50;95.40
2897;DHT22;1458;49.728;9.228;2023-11-18T10:09:17;8.70;94.70
2897;DHT22;1458;49.728;9.228;2023-11-18T10:11:55;8.70;94.90
2897;DHT22;1458;49.728;9.228;2023-11-18T10:14:31;8.70;93.80
2897;DHT22;1458;49.728;9.228;2023-11-18T10:16:58;8.70;93.30
2897;DHT22;1458;49.728;9.228;2023-11-18T10:19:26;8.70;94.50
2897;DHT22;1458;49.728;9.228;2023-11-18T10:22:21;8.90;93.00
2897;DHT22;1458;49.728;9.228;2023-11-18T10:24:52;8.80;93.20
2897;DHT22;1458;49.728;9.228;2023-11-18T10:27:23;8.90;93.20
2897;DHT22;1458;49.728;9.228;2023-11-18T10:29:55;8.90;92.70
2897;DHT22;1458;49.728;9.228;2023-11-18T10:32:23;9.00;93.30
2897;DHT22;1458;49.728;9.228;2023-11-18T10:34:55;9.10;91.20
2897;DHT22;1458;49.728;9.228;2023-11-18T10:37:23;9.20;92.40
2897;DHT22;1458;49.728;9.228;2023-11-18T10:39:52;9.40;91.80
2897;DHT22;1458;49.728;9.228;2023-11-18T10:42:19;9.40;91.80
2897;DHT22;1458;49.728;9.228;2023-11-18T10:44:57;9.50;91.50
2897;DHT22;1458;49.728;9.228;2023-11-18T10:47:27;9.60;90.60
2897;DHT22;1458;49.728;9.228;2023-11-18T10:49:56;9.60;91.30
2897;DHT22;1458;49.728;9.228;2023-11-18T10:52:24;9.70;90.10
2897;DHT22;1458;49.728;9.228;2023-11-18T10:54:58;9.60;90.30
2897;DHT22;1458;49.728;9.228;2023-11-18T10:57:33;9.60;89.00
2897;DHT22;1458;49.728;9.228;2023-11-18T11:00:02;9.50;89.50
2897;DHT22;1458;49.728;9.228;2023-11-18T11:02:39;9.50;88.90
2897;DHT22;1458;49.728;9.228;2023-11-18T11:05:07;9.60;88.70
2897;DHT22;1458;49.728;9.228;2023-11-18T11:07:42;9.50;87.10
2897;DHT22;1458;49.728;9.228;2023-11-18T11:10:11;9.50;88.20
2897;DHT22;1458;49.728;9.228;2023-11-18T11:12:46;9.40;87.60
2897;DHT22;1458;49.728;9.228;2023-11-18T11:15:22;9.40;86.10
2897;DHT22;1458;49.728;9.228;2023-11-18T11:17:53;9.50;88.30
2897;DHT22;1458;49.728;9.228;2023-11-18T11:20:53;9.50;88.90
2897;DHT22;1458;49.728;9.228;2023-11-18T11:23:35;9.60;90.00
2897;DHT22;1458;49.728;9.228;2023-11-18T11:26:17;9.80;87.90
2897;DHT22;1458;49.728;9.228;2023-11-18T11:29:07;9.80;86.10
2897;DHT22;1458;49.728;9.228;2023-11-18T11:31:41;9.80;85.30
2897;DHT22;1458;49.728;9.228;2023-11-18T11:34:16;9.70;86.40
2897;DHT22;1458;49.728;9.228;2023-11-18T11:36:47;9.70;86.70
2897;DHT22;1458;49.728;9.228;2023-11-18T11:39:17;9.70;86.20
2897;DHT22;1458;49.728;9.228;2023-11-18T11:41:53;9.70;87.10
2897;DHT22;1458;49.728;9.228;2023-11-18T11:44:22;9.80;86.00
2897;DHT22;1458;49.728;9.228;2023-11-18T11:46:55;9.80;86.10
2897;DHT22;1458;49.728;9.228;2023-11-18T11:49:27;9.70;86.00
2897;DHT22;1458;49.728;9.228;2023-11-18T11:52:03;9.70;87.00
2897;DHT22;1458;49.728;9.228;2023-11-18T11:54:38;9.70;88.80
2897;DHT22;1458;49.728;9.228;2023-11-18T11:57:12;9.60;89.00
2897;DHT22;1458;49.728;9.228;2023-11-18T11:59:55;9.50;89.50
2897;DHT22;1458;49.728;9.228;2023-11-18T12:02:24;9.40;90.40
2897;DHT22;1458;49.728;9.228;2023-11-18T12:04:55;9.50;90.60
2897;DHT22;1458;49.728;9.228;2023-11-18T12:07:25;9.40;90.20
2897;DHT22;1458;49.728;9.228;2023-11-18T12:09:57;9.40;90.60
2897;DHT22;1458;49.728;9.228;2023-11-18T12:12:28;9.40;91.00
2897;DHT22;1458;49.728;9.228;2023-11-18T12:14:57;9.40;91.60
2897;DHT22;1458;49.728;9.228;2023-11-18T12:18:10;9.50;92.00
2897;DHT22;1458;49.728;9.228;2023-11-18T12:20:41;9.50;91.00
2897;DHT22;1458;49.728;9.228;2023-11-18T12:23:10;9.60;90.30
2897;DHT22;1458;49.728;9.228;2023-11-18T12:25:41;9.50;90.20
2897;DHT22;1458;49.728;9.228;2023-11-18T12:28:11;9.50;89.70
2897;DHT22;1458;49.728;9.228;2023-11-18T12:30:45;9.60;90.20
2897;DHT22;1458;49.728;9.228;2023-11-18T12:33:22;9.60;90.80
2897;DHT22;1458;49.728;9.228;2023-11-18T12:36:22;9.60;90.90
2897;DHT22;1458;49.728;9.228;2023-11-18T12:42:42;9.60;88.60
2897;DHT22;1458;49.728;9.228;2023-11-18T12:48:43;9.80;89.20
2897;DHT22;1458;49.728;9.228;2023-11-18T12:51:13;9.80;88.60
2897;DHT22;1458;49.728;9.228;2023-11-18T12:53:49;9.70;87.80
2897;DHT22;1458;49.728;9.228;2023-11-18T12:56:20;9.60;86.10
2897;DHT22;1458;49.728;9.228;2023-11-18T12:58:49;9.50;85.90
2897;DHT22;1458;49.728;9.228;2023-11-18T13:01:16;9.50;86.90
2897;DHT22;1458;49.728;9.228;2023-11-18T13:03:44;9.40;87.80
2897;DHT22;1458;49.728;9.228;2023-11-18T13:06:12;9.50;87.20
2897;DHT22;1458;49.728;9.228;2023-11-18T13:08:40;9.40;86.00
2897;DHT22;1458;49.728;9.228;2023-11-18T13:11:09;9.30;87.70
2897;DHT22;1458;49.728;9.228;2023-11-18T13:13:41;9.30;87.00
2897;DHT22;1458;49.728;9.228;2023-11-18T13:16:09;9.10;87.40
2897;DHT22;1458;49.728;9.228;2023-11-18T13:18:43;9.20;86.00
2897;DHT22;1458;49.728;9.228;2023-11-18T13:21:15;9.10;86.80
2897;DHT22;1458;49.728;9.228;2023-11-18T13:23:45;9.20;88.20
2897;DHT22;1458;49.728;9.228;2023-11-18T13:26:15;9.20;88.20
2897;DHT22;1458;49.728;9.228;2023-11-18T13:28:46;9.20;86.70
2897;DHT22;1458;49.728;9.228;2023-11-18T13:31:13;9.20;88.10
2897;DHT22;1458;49.728;9.228;2023-11-18T13:33:42;9.10;88.70
2897;DHT22;1458;49.728;9.228;2023-11-18T13:36:11;9.00;89.10
2897;DHT22;1458;49.728;9.228;2023-11-18T13:38:39;9.00;90.20
2897;DHT22;1458;49.728;9.228;2023-11-18T13:41:07;9.10;90.70
2897;DHT22;1458;49.728;9.228;2023-11-18T13:43:43;9.10;90.50
2897;DHT22;1458;49.728;9.228;2023-11-18T13:46:13;9.00;90.90
2897;DHT22;1458;49.728;9.228;2023-11-18T13:48:41;9.10;90.80
2897;DHT22;1458;49.728;9.228;2023-11-18T13:51:10;9.00;90.70
2897;DHT22;1458;49.728;9.228;2023-11-18T13:53:40;8.90;91.00
2897;DHT22;1458;49.728;9.228;2023-11-18T13:56:09;8.90;91.90
2897;DHT22;1458;49.728;9.228;2023-11-18T13:58:38;8.80;92.30
2897;DHT22;1458;49.728;9.228;2023-11-18T14:01:08;8.70;93.00
2897;DHT22;1458;49.728;9.228;2023-11-18T14:03:39;8.70;93.20
2897;DHT22;1458;49.728;9.228;2023-11-18T14:06:09;8.70;94.60
2897;DHT22;1458;49.728;9.228;2023-11-18T14:08:38;8.70;94.90
2897;DHT22;1458;49.728;9.228;2023-11-18T14:11:07;8.70;94.90
2897;DHT22;1458;49.728;9.228;2023-11-18T14:13:35;8.70;94.80
2897;DHT22;1458;49.728;9.228;2023-11-18T14:20:12;8.70;93.70
2897;DHT22;1458;49.728;9.228;2023-11-18T14:22:39;8.70;94.50
2897;DHT22;1458;49.728;9.228;2023-11-18T14:25:08;8.60;93.80
2897;DHT22;1458;49.728;9.228;2023-11-18T14:27:38;8.60;93.10
2897;DHT22;1458;49.728;9.228;2023-11-18T14:30:08;8.50;93.80
2897;DHT22;1458;49.728;9.228;2023-11-18T14:32:36;8.50;93.40
2897;DHT22;1458;49.728;9.228;2023-11-18T14:35:04;8.60;93.80
2897;DHT22;1458;49.728;9.228;2023-11-18T14:37:37;8.60;93.50
2897;DHT22;1458;49.728;9.228;2023-11-18T14:40:10;8.50;93.80
2897;DHT22;1458;49.728;9.228;2023-11-18T14:42:40;8.50;93.30
2897;DHT22;1458;49.728;9.228;2023-11-18T14:45:10;8.40;93.50
2897;DHT22;1458;49.728;9.228;2023-11-18T14:47:39;8.30;94.40
2897;DHT22;1458;49.728;9.228;2023-11-18T14:50:07;8.40;94.30
2897;DHT22;1458;49.728;9.228;2023-11-18T14:52:45;8.40;94.50
2897;DHT22;1458;49.728;9.228;2023-11-18T14:55:13;8.40;94.60
2897;DHT22;1458;49.728;9.228;2023-11-18T14:57:43;8.30;94.80
2897;DHT22;1458;49.728;9.228;2023-11-18T15:00:13;8.30;95.30
2897;DHT22;1458;49.728;9.228;2023-11-18T15:02:48;8.30;95.40
2897;DHT22;1458;49.728;9.228;2023-11-18T15:05:16;8.20;95.70
2897;DHT22;1458;49.728;9.228;2023-11-18T15:07:47;8.20;96.00
2897;DHT22;1458;49.728;9.228;2023-11-18T15:10:15;8.10;96.70
2897;DHT22;1458;49.728;9.228;2023-11-18T15:12:46;8.10;96.90
2897;DHT22;1458;49.728;9.228;2023-11-18T15:15:14;8.10;96.60
2897;DHT22;1458;49.728;9.228;2023-11-18T15:17:47;8.10;96.80
2897;DHT22;1458;49.728;9.228;2023-11-18T15:20:15;8.10;97.20
2897;DHT22;1458;49.728;9.228;2023-11-18T15:22:46;8.10;97.10
2897;DHT22;1458;49.728;9.228;2023-11-18T15:25:13;8.10;96.50
2897;DHT22;1458;49.728;9.228;2023-11-18T15:27:43;8.00;97.40
2897;DHT22;1458;49.728;9.228;2023-11-18T15:30:12;8.10;96.90
2897;DHT22;1458;49.728;9.228;2023-11-18T15:32:41;7.90;97.70
2897;DHT22;1458;49.728;9.228;2023-11-18T15:35:10;7.90;99.10
2897;DHT22;1458;49.728;9.228;2023-11-18T15:37:39;7.90;99.90
2897;DHT22;1458;49.728;9.228;2023-11-18T15:40:10;7.90;99.90
2897;DHT22;1458;49.728;9.228;2023-11-18T15:42:40;7.90;99.60
2897;DHT22;1458;49.728;9.228;2023-11-18T15:45:09;7.90;99.70
2897;DHT22;1458;49.728;9.228;2023-11-18T15:47:38;7.90;99.90
2897;DHT22;1458;49.728;9.228;2023-11-18T15:50:09;7.80;99.90
2897;DHT22;1458;49.728;9.228;2023-11-18T15:52:42;7.90;99.90
2897;DHT22;1458;49.728;9.228;2023-11-18T15:55:10;7.80;99.90
2897;DHT22;1458;49.728;9.228;2023-11-18T15:57:40;7.90;99.90
2897;DHT22;1458;49.728;9.228;2023-11-18T16:00:09;7.90;99.90
2897;DHT22;1458;49.728;9.228;2023-11-18T16:02:42;8.00;99.50
2897;DHT22;1458;49.728;9.228;2023-11-18T16:05:14;8.00;99.70
2897;DHT22;1458;49.728;9.228;2023-11-18T16:07:43;7.80;99.90
2897;DHT22;1458;49.728;9.228;2023-11-18T16:10:13;7.80;99.90
2897;DHT22;1458;49.728;9.228;2023-11-18T16:12:44;7.80;99.90
2897;DHT22;1458;49.728;9.228;2023-11-18T16:15:13;7.90;99.90
2897;DHT22;1458;49.728;9.228;2023-11-18T16:17:41;7.90;99.90
2897;DHT22;1458;49.728;9.228;2023-11-18T16:20:12;7.90;99.90
2897;DHT22;1458;49.728;9.228;2023-11-18T16:22:42;7.90;99.90
2897;DHT22;1458;49.728;9.228;2023-11-18T16:25:15;7.90;99.90
2897;DHT22;1458;49.728;9.228;2023-11-18T16:27:44;7.90;99.90
2897;DHT22;1458;49.728;9.228;2023-11-18T16:30:12;8.00;99.90
2897;DHT22;1458;49.728;9.228;2023-11-18T16:32:40;7.90;99.90
2897;DHT22;1458;49.728;9.228;2023-11-18T16:35:08;7.90;99.90
2897;DHT22;1458;49.728;9.228;2023-11-18T16:37:37;7.90;99.90
2897;DHT22;1458;49.728;9.228;2023-11-18T16:40:07;7.90;99.90
2897;DHT22;1458;49.728;9.228;2023-11-18T16:42:41;7.80;99.90
2897;DHT22;1458;49.728;9.228;2023-11-18T16:45:10;7.90;99.90
2897;DHT22;1458;49.728;9.228;2023-11-18T16:47:39;7.90;99.90